createdAt,value
2023-04-24T00:00:51.935Z,13.75
2023-04-24T00:05:53.458Z,13.73
2023-04-24T00:10:54.925Z,13.71
2023-04-24T00:15:56.884Z,13.61
2023-04-24T00:20:59.573Z,13.63
2023-04-24T00:26:01.177Z,13.46
2023-04-24T00:31:03.004Z,13.56
2023-04-24T00:36:04.485Z,13.51
2023-04-24T00:41:05.969Z,13.51
2023-04-24T00:46:07.445Z,13.53
2023-04-24T00:51:08.868Z,13.37
2023-04-24T00:56:11.296Z,13.41
2023-04-24T01:01:12.997Z,13.28
2023-04-24T01:06:15.425Z,13.44
2023-04-24T01:11:17.248Z,13.40
2023-04-24T01:16:23.575Z,13.49
2023-04-24T01:21:29.400Z,13.38
2023-04-24T01:26:30.936Z,13.30
2023-04-24T01:31:33.233Z,13.27
2023-04-24T01:36:36.092Z,13.33
2023-04-24T01:41:38.938Z,13.23
2023-04-24T01:46:40.897Z,13.09
2023-04-24T01:51:42.435Z,13.13
2023-04-24T01:56:44.549Z,13.09
2023-04-24T02:01:46.131Z,13.13
2023-04-24T02:06:47.874Z,13.14
2023-04-24T02:11:49.264Z,13.07
2023-04-24T02:16:50.807Z,13.13
2023-04-24T02:21:52.945Z,13.05
2023-04-24T02:26:54.325Z,13.00
2023-04-24T02:31:56.059Z,12.95
2023-04-24T02:36:57.530Z,12.84
2023-04-24T02:41:59.522Z,12.77
2023-04-24T02:47:01.158Z,12.68
2023-04-24T02:52:02.569Z,12.65
2023-04-24T02:57:04.287Z,12.51
2023-04-24T03:02:06.966Z,12.54
2023-04-24T03:07:08.642Z,12.62
2023-04-24T03:12:10.344Z,12.52
2023-04-24T03:17:12.188Z,12.50
2023-04-24T03:22:13.806Z,12.52
2023-04-24T03:27:15.351Z,12.51
2023-04-24T03:32:16.938Z,12.50
2023-04-24T03:37:18.509Z,12.51
2023-04-24T03:42:20.247Z,12.56
2023-04-24T03:47:21.697Z,12.49
2023-04-24T03:52:24.112Z,12.57
2023-04-24T03:57:26.073Z,12.55
2023-04-24T04:02:27.728Z,12.53
2023-04-24T04:07:31.110Z,12.56
2023-04-24T04:12:33.171Z,12.61
2023-04-24T04:17:34.900Z,12.55
2023-04-24T04:22:38.895Z,12.59
2023-04-24T04:27:42.778Z,12.55
2023-04-24T04:32:45.274Z,12.59
2023-04-24T04:37:46.769Z,12.56
2023-04-24T04:42:49.041Z,12.44
2023-04-24T04:47:50.417Z,12.34
2023-04-24T04:52:52.451Z,12.29
2023-04-24T04:57:53.981Z,12.26
2023-04-24T05:03:01.045Z,12.09
2023-04-24T05:08:25.773Z,12.12
2023-04-24T05:13:39.271Z,12.01
2023-04-24T05:18:42.164Z,11.93
2023-04-24T05:23:43.766Z,11.87
2023-04-24T05:28:45.679Z,11.82
2023-04-24T05:33:47.102Z,11.76
2023-04-24T05:38:48.950Z,11.82
2023-04-24T05:43:50.863Z,11.90
2023-04-24T05:48:52.890Z,11.87
2023-04-24T05:53:55.041Z,11.88
2023-04-24T05:58:58.288Z,11.97
2023-04-24T06:04:00.118Z,12.00
2023-04-24T06:09:02.247Z,12.12
2023-04-24T06:14:03.654Z,12.09
2023-04-24T06:19:05.235Z,12.14
2023-04-24T06:24:07.915Z,12.12
2023-04-24T06:29:09.705Z,11.80
2023-04-24T06:34:11.575Z,12.19
2023-04-24T06:39:14.723Z,12.35
2023-04-24T06:44:16.441Z,12.44
2023-04-24T06:49:19.482Z,12.35
2023-04-24T06:54:21.594Z,12.29
2023-04-24T06:59:23.055Z,12.10
2023-04-24T07:04:26.645Z,12.20
2023-04-24T07:09:28.492Z,12.11
2023-04-24T07:14:30.198Z,12.20
2023-04-24T07:19:35.111Z,12.33
2023-04-24T07:24:36.951Z,12.44
2023-04-24T07:29:39.445Z,12.59
2023-04-24T07:34:41.431Z,12.62
2023-04-24T07:39:43.333Z,12.59
2023-04-24T07:44:44.994Z,12.66
2023-04-24T07:49:49.296Z,12.56
2023-04-24T07:54:51.274Z,12.54
2023-04-24T07:59:52.780Z,12.70
2023-04-24T08:05:00.250Z,12.95
2023-04-24T08:10:02.767Z,12.57
2023-04-24T08:15:04.899Z,12.81
2023-04-24T08:20:07.292Z,12.95
2023-04-24T08:25:09.514Z,12.98
2023-04-24T08:30:11.733Z,13.13
2023-04-24T08:35:13.416Z,13.09
2023-04-24T08:40:18.093Z,13.55
2023-04-24T08:45:20.077Z,13.89
2023-04-24T08:50:23.108Z,13.76
2023-04-24T08:55:26.363Z,13.42
2023-04-24T09:00:28.613Z,13.19
2023-04-24T09:05:31.000Z,12.95
2023-04-24T09:10:32.695Z,12.78
2023-04-24T09:15:35.797Z,12.77
2023-04-24T09:21:04.720Z,12.79
2023-04-24T09:26:06.351Z,12.86
2023-04-24T09:31:14.811Z,12.86
2023-04-24T09:36:18.457Z,12.76
2023-04-24T09:41:19.830Z,12.59
2023-04-24T09:46:23.018Z,12.51
2023-04-24T09:51:38.705Z,12.52
2023-04-24T09:56:45.157Z,12.44
2023-04-24T10:01:47.570Z,12.34
2023-04-24T10:06:50.846Z,12.61
2023-04-24T10:11:54.388Z,12.68
2023-04-24T10:16:59.747Z,12.80
2023-04-24T10:22:02.035Z,12.62
2023-04-24T10:27:04.709Z,12.59
2023-04-24T10:32:08.418Z,12.49
2023-04-24T10:37:09.979Z,12.48
2023-04-24T10:42:18.413Z,12.46
2023-04-24T10:47:19.814Z,12.24
2023-04-24T10:52:21.774Z,12.43
2023-04-24T10:57:31.737Z,12.42
2023-04-24T11:02:49.606Z,12.55
2023-04-24T11:08:14.366Z,13.55
2023-04-24T11:13:22.974Z,13.97
2023-04-24T11:18:24.738Z,14.35
2023-04-24T11:23:26.973Z,14.14
2023-04-24T11:28:29.476Z,14.30
2023-04-24T11:33:32.644Z,14.40
2023-04-24T11:38:34.136Z,16.70
2023-04-24T11:43:36.070Z,17.42
2023-04-24T11:48:41.090Z,17.97
2023-04-24T11:53:43.497Z,17.27
2023-04-24T11:58:45.665Z,16.52
2023-04-24T12:03:52.553Z,15.64
2023-04-24T12:09:01.778Z,15.11
2023-04-24T12:14:13.321Z,14.65
2023-04-24T12:19:23.351Z,14.66
2023-04-24T12:24:24.742Z,14.41
2023-04-24T12:29:26.498Z,13.82
2023-04-24T12:34:28.038Z,14.51
2023-04-24T12:39:29.445Z,15.35
2023-04-24T12:44:36.004Z,15.32
2023-04-24T12:49:37.426Z,14.92
2023-04-24T12:54:39.208Z,14.70
2023-04-24T12:59:42.839Z,14.85
2023-04-24T13:04:48.095Z,14.86
2023-04-24T13:09:53.778Z,15.67
2023-04-24T13:14:55.451Z,16.09
2023-04-24T13:19:56.858Z,16.34
2023-04-24T13:24:58.366Z,16.48
2023-04-24T13:30:00.900Z,16.50
2023-04-24T13:35:03.365Z,16.26
2023-04-24T13:40:06.962Z,15.69
2023-04-24T13:45:21.302Z,15.07
2023-04-24T13:50:27.215Z,14.67
2023-04-24T13:55:28.609Z,14.67
2023-04-24T14:00:30.096Z,14.90
2023-04-24T14:05:31.642Z,14.80
2023-04-24T14:10:33.139Z,14.84
2023-04-24T14:15:36.947Z,15.37
2023-04-24T14:20:38.649Z,15.45
2023-04-24T14:25:40.290Z,15.41
2023-04-24T14:30:41.957Z,15.69
2023-04-24T14:35:43.997Z,15.50
2023-04-24T14:41:05.592Z,15.44
2023-04-24T14:46:07.463Z,14.96
2023-04-24T14:51:08.930Z,14.56
2023-04-24T14:56:10.806Z,14.48
2023-04-24T15:01:12.302Z,14.55
2023-04-24T15:06:13.942Z,14.72
2023-04-24T15:11:15.603Z,14.66
2023-04-24T15:16:17.255Z,14.51
2023-04-24T15:21:18.760Z,14.59
2023-04-24T15:26:20.881Z,14.64
2023-04-24T15:31:24.055Z,14.49
2023-04-24T15:36:25.853Z,14.43
2023-04-24T15:41:27.377Z,14.50
2023-04-24T15:46:28.990Z,14.41
2023-04-24T15:51:31.991Z,14.43
2023-04-24T15:56:33.900Z,14.48
2023-04-24T16:01:35.710Z,14.38
2023-04-24T16:06:37.620Z,14.25
2023-04-24T16:11:39.804Z,14.30
2023-04-24T16:16:41.684Z,14.42
2023-04-24T16:21:43.424Z,14.33
2023-04-24T16:26:44.912Z,14.32
2023-04-24T16:31:46.444Z,14.27
2023-04-24T16:36:48.003Z,14.22
2023-04-24T16:41:49.796Z,14.28
2023-04-24T16:46:51.946Z,14.30
2023-04-24T16:51:53.529Z,14.40
2023-04-24T16:56:55.487Z,14.27
2023-04-24T17:01:57.493Z,14.18
2023-04-24T17:06:59.071Z,14.20
2023-04-24T17:12:02.274Z,14.07
2023-04-24T17:17:04.592Z,14.02
2023-04-24T17:22:06.639Z,13.93
2023-04-24T17:27:14.982Z,13.89
2023-04-24T17:32:17.199Z,13.90
2023-04-24T17:37:23.045Z,13.90
2023-04-24T17:42:24.701Z,13.84
2023-04-24T17:47:27.483Z,13.77
2023-04-24T17:52:29.149Z,13.77
2023-04-24T17:57:30.850Z,13.69
2023-04-24T18:02:32.539Z,13.72
2023-04-24T18:07:34.203Z,13.74
2023-04-24T18:12:35.796Z,13.83
2023-04-24T18:17:37.311Z,13.50
2023-04-24T18:22:39.101Z,13.50
2023-04-24T18:27:42.127Z,13.16
2023-04-24T18:32:43.763Z,13.13
2023-04-24T18:37:46.613Z,13.04
2023-04-24T18:42:48.740Z,12.97
2023-04-24T18:47:50.950Z,12.76
2023-04-24T18:52:52.587Z,12.77
2023-04-24T18:57:54.103Z,12.77
2023-04-24T19:02:58.201Z,12.72
2023-04-24T19:08:01.611Z,12.48
2023-04-24T19:13:03.720Z,12.66
2023-04-24T19:18:07.048Z,12.53
2023-04-24T19:23:09.111Z,12.41
2023-04-24T19:28:10.767Z,12.28
2023-04-24T19:33:13.134Z,12.30
2023-04-24T19:38:14.888Z,12.12
2023-04-24T19:43:16.336Z,12.08
2023-04-24T19:48:18.421Z,12.19
2023-04-24T19:53:19.982Z,12.24
2023-04-24T19:58:21.460Z,12.23
2023-04-24T20:03:32.795Z,12.23
2023-04-24T20:08:38.717Z,12.13
2023-04-24T20:13:40.429Z,12.02
2023-04-24T20:18:42.015Z,11.93
2023-04-24T20:23:43.642Z,11.83
2023-04-24T20:28:45.150Z,11.82
2023-04-24T20:33:46.728Z,11.82
2023-04-24T20:38:48.466Z,11.87
2023-04-24T20:43:50.351Z,11.83
2023-04-24T20:48:52.195Z,11.87
2023-04-24T20:53:53.886Z,11.84
2023-04-24T20:58:57.178Z,11.84
2023-04-24T21:04:00.347Z,11.86
2023-04-24T21:09:02.136Z,11.93
2023-04-24T21:14:03.739Z,11.96
2023-04-24T21:19:08.647Z,11.95
2023-04-24T21:24:10.401Z,11.95
2023-04-24T21:29:12.192Z,12.03
2023-04-24T21:34:13.756Z,12.02
2023-04-24T21:39:15.417Z,11.95
2023-04-24T21:44:16.909Z,11.88
2023-04-24T21:49:18.385Z,11.86
2023-04-24T21:54:20.743Z,11.80
2023-04-24T21:59:22.222Z,11.77
2023-04-24T22:04:23.866Z,11.67
2023-04-24T22:09:25.553Z,11.67
2023-04-24T22:14:27.131Z,11.52
2023-04-24T22:19:28.595Z,11.51
2023-04-24T22:24:30.823Z,11.55
2023-04-24T22:29:32.289Z,11.63
2023-04-24T22:34:33.905Z,11.58
2023-04-24T22:39:35.398Z,11.54
2023-04-24T22:44:37.141Z,11.56
2023-04-24T22:49:39.841Z,11.65
2023-04-24T22:54:41.952Z,11.67
2023-04-24T22:59:44.017Z,11.70
2023-04-24T23:04:45.587Z,11.65
2023-04-24T23:09:47.139Z,11.63
2023-04-24T23:14:48.533Z,11.68
2023-04-24T23:19:49.928Z,11.55
2023-04-24T23:24:51.433Z,11.39
2023-04-24T23:29:53.157Z,11.55
2023-04-24T23:34:54.773Z,11.50
2023-04-24T23:39:56.700Z,11.42
2023-04-24T23:44:58.080Z,11.20
2023-04-24T23:49:59.624Z,11.10
2023-04-24T23:55:02.524Z,11.14
